Hayfield, Minnesota
Current Conditions -  °F | °C
As of 7:13 PM on Sunday 23 Nov 2014 (Local Time) from KTOB Reporting Station
Haze Haze  
Wind Chill: 30°   Ceiling: 600
Heat Index: 39°   Visibility: 5mi
Dew Point: 39°   Wind: 17mph
Humidity: 100%   Direction: 310°NW
Pressure: 29.34"   Gusts: 22mph
Location:  43.89°N, 92.85°W
Report Text: KTOB 240113Z AUTO 31015G19KT 5SM BR OVC006 04/04 A2934 RMK AO2
Loading
Personal Weather Stations






























Interactive Weather Map New forecast layout! Learn more

10-Day Weather Forecast

Advertisements
Track Severe Weather on mobile